Time;durP1;ratioP1;P1;durP2;ratioP2;P2;SDS_P1;SDS_P2;PMS_P1;PMS_P2;Temp;Humidity;BMP_temperature;BMP_pressure;BME280_temperature;BME280_humidity;BME280_pressure;Samples;Min_cycle;Max_cycle;Signal;HPM_P1;HPM_P2
2022/10/24 00:00:49;;;;;;;7.77;6.97;;;;;;;;;;5073254;28;20538;-56
2022/10/24 00:03:15;;;;;;;7.80;7.00;;;;;;;;;;5073148;28;20490;-56
2022/10/24 00:05:44;;;;;;;7.23;6.63;;;;;;;;;;5073091;28;20454;-55
2022/10/24 00:08:11;;;;;;;9.80;7.23;;;;;;;;;;5072762;28;20543;-56
2022/10/24 00:10:42;;;;;;;7.80;6.77;;;;;;;;;;5072817;28;20443;-55
2022/10/24 00:13:09;;;;;;;9.73;6.57;;;;;;;;;;5073132;28;20451;-57
2022/10/24 00:15:36;;;;;;;7.37;6.40;;;;;;;;;;5073183;28;20858;-55
2022/10/24 00:18:03;;;;;;;13.13;6.70;;;;;;;;;;5073069;28;20455;-55
2022/10/24 00:20:30;;;;;;;9.00;7.20;;;;;;;;;;5073002;28;20530;-56
2022/10/24 00:22:58;;;;;;;7.80;6.97;;;;;;;;;;5072685;28;20478;-55
2022/10/24 00:25:25;;;;;;;7.80;7.00;;;;;;;;;;5072673;28;20542;-55
2022/10/24 00:27:52;;;;;;;7.77;7.10;;;;;;;;;;5072695;28;20938;-51
2022/10/24 00:30:19;;;;;;;7.67;6.87;;;;;;;;;;5072877;28;20503;-50
2022/10/24 00:32:46;;;;;;;8.13;7.40;;;;;;;;;;5072705;28;20447;-55
2022/10/24 00:35:13;;;;;;;8.13;7.33;;;;;;;;;;5072639;28;20473;-55
2022/10/24 00:37:40;;;;;;;8.23;7.20;;;;;;;;;;5072581;28;20949;-56
2022/10/24 00:40:10;;;;;;;7.40;6.80;;;;;;;;;;5072860;28;20447;-55
2022/10/24 00:42:37;;;;;;;8.93;8.03;;;;;;;;;;5072686;28;20483;-55
2022/10/24 00:45:18;;;;;;;8.70;7.63;;;;;;;;;;5072704;28;20446;-54
2022/10/24 00:47:45;;;;;;;9.63;8.07;;;;;;;;;;5071708;28;20475;-54
2022/10/24 00:50:13;;;;;;;8.20;7.40;;;;;;;;;;5072435;28;20458;-55
2022/10/24 00:52:45;;;;;;;7.93;7.03;;;;;;;;;;5073339;28;20483;-52
2022/10/24 00:55:14;;;;;;;10.90;7.80;;;;;;;;;;5076676;28;20447;-54
2022/10/24 00:57:44;;;;;;;10.33;7.57;;;;;;;;;;5076491;28;20889;-53
2022/10/24 01:00:12;;;;;;;8.27;7.50;;;;;;;;;;5076430;28;20457;-53
2022/10/24 01:02:40;;;;;;;10.07;7.37;;;;;;;;;;5076102;28;21015;-53
2022/10/24 01:05:07;;;;;;;8.57;6.93;;;;;;;;;;5076438;28;20451;-54
2022/10/24 01:07:46;;;;;;;7.77;6.97;;;;;;;;;;5076273;28;20451;-51
2022/10/24 01:10:22;;;;;;;7.93;7.13;;;;;;;;;;5076336;28;20553;-51
2022/10/24 01:12:55;;;;;;;10.40;7.23;;;;;;;;;;5076545;28;20458;-53
2022/10/24 01:15:25;;;;;;;8.23;7.30;;;;;;;;;;5075947;28;20947;-52
2022/10/24 01:17:56;;;;;;;8.33;6.07;;;;;;;;;;5076317;28;20454;-51
2022/10/24 01:20:30;;;;;;;6.32;5.72;;;;;;;;;;5076091;28;20542;-53
2022/10/24 01:23:02;;;;;;;8.02;6.03;;;;;;;;;;5075955;28;20289;-51
2022/10/24 01:25:38;;;;;;;7.47;5.88;;;;;;;;;;5075814;28;20189;-51
2022/10/24 01:28:08;;;;;;;8.03;5.60;;;;;;;;;;5076064;28;20200;-52
2022/10/24 01:30:42;;;;;;;9.47;5.10;;;;;;;;;;5076017;28;20530;-53
2022/10/24 01:33:14;;;;;;;16.30;6.17;;;;;;;;;;5075907;28;20455;-52
2022/10/24 01:35:43;;;;;;;6.70;6.00;;;;;;;;;;5075721;28;20481;-54
2022/10/24 01:38:13;;;;;;;8.77;7.20;;;;;;;;;;5075545;28;20973;-52
2022/10/24 01:40:45;;;;;;;8.03;7.30;;;;;;;;;;5075816;28;20539;-50
2022/10/24 01:43:13;;;;;;;7.88;6.70;;;;;;;;;;5075636;28;20467;-50
2022/10/24 01:45:44;;;;;;;8.20;6.97;;;;;;;;;;5075542;28;20199;-51
2022/10/24 01:48:14;;;;;;;11.30;6.90;;;;;;;;;;5075354;28;20475;-51
2022/10/24 01:50:41;;;;;;;11.87;7.50;;;;;;;;;;5075334;28;20475;-50
2022/10/24 01:53:09;;;;;;;8.07;7.20;;;;;;;;;;5075536;28;20494;-53
2022/10/24 01:55:36;;;;;;;11.80;7.70;;;;;;;;;;5075407;28;20448;-53
2022/10/24 01:58:03;;;;;;;8.60;7.90;;;;;;;;;;5075563;28;20893;-54
2022/10/24 02:00:30;;;;;;;11.80;8.27;;;;;;;;;;5075278;28;20534;-55
2022/10/24 02:03:01;;;;;;;11.27;8.30;;;;;;;;;;5075075;28;20562;-56
2022/10/24 02:05:32;;;;;;;8.20;6.80;;;;;;;;;;5074074;28;20950;-55
2022/10/24 02:08:01;;;;;;;6.77;5.73;;;;;;;;;;5075327;28;20959;-55
2022/10/24 02:10:30;;;;;;;6.70;6.10;;;;;;;;;;5075182;28;20469;-52
2022/10/24 02:13:00;;;;;;;8.07;6.40;;;;;;;;;;5075081;28;20439;-52
2022/10/24 02:15:29;;;;;;;7.40;6.67;;;;;;;;;;5074929;28;20447;-53
2022/10/24 02:17:57;;;;;;;10.80;8.40;;;;;;;;;;5075155;28;20530;-55
2022/10/24 02:20:27;;;;;;;7.97;7.27;;;;;;;;;;5075098;28;20450;-52
2022/10/24 02:22:57;;;;;;;7.17;6.47;;;;;;;;;;5074888;28;20471;-55
2022/10/24 02:25:27;;;;;;;7.43;6.73;;;;;;;;;;5074885;28;20493;-53
2022/10/24 02:27:56;;;;;;;7.80;7.10;;;;;;;;;;5074654;28;20457;-50
2022/10/24 02:30:24;;;;;;;10.83;8.17;;;;;;;;;;5074934;28;20447;-55
2022/10/24 02:32:53;;;;;;;14.03;8.70;;;;;;;;;;5074797;28;20454;-55
2022/10/24 02:35:20;;;;;;;9.43;7.80;;;;;;;;;;5074653;28;20458;-52
2022/10/24 02:37:50;;;;;;;15.67;8.57;;;;;;;;;;5074644;28;20451;-55
2022/10/24 02:40:19;;;;;;;9.13;8.23;;;;;;;;;;5074548;28;20451;-56
2022/10/24 02:42:47;;;;;;;9.63;7.63;;;;;;;;;;5074327;28;20451;-55
2022/10/24 02:45:15;;;;;;;12.88;8.10;;;;;;;;;;5074496;28;20454;-58
2022/10/24 02:47:43;;;;;;;7.83;7.00;;;;;;;;;;5074277;28;20227;-55
2022/10/24 02:50:10;;;;;;;9.47;8.07;;;;;;;;;;5074449;28;20618;-55
2022/10/24 02:52:38;;;;;;;12.05;8.50;;;;;;;;;;5074249;28;20448;-55
2022/10/24 02:55:07;;;;;;;9.57;8.40;;;;;;;;;;5074125;28;20269;-55
2022/10/24 02:57:34;;;;;;;7.60;7.00;;;;;;;;;;5074097;28;20947;-54
2022/10/24 03:00:01;;;;;;;6.87;6.27;;;;;;;;;;5074247;28;20450;-53
2022/10/24 03:02:28;;;;;;;10.80;6.53;;;;;;;;;;5074147;28;20490;-54
2022/10/24 03:04:55;;;;;;;7.73;6.97;;;;;;;;;;5073937;28;20574;-56
2022/10/24 03:07:22;;;;;;;6.57;5.97;;;;;;;;;;5073812;28;20509;-56
2022/10/24 03:09:49;;;;;;;6.93;6.30;;;;;;;;;;5073870;28;20546;-56
2022/10/24 03:12:18;;;;;;;9.53;6.53;;;;;;;;;;5074031;28;20451;-56
2022/10/24 03:14:45;;;;;;;6.37;5.73;;;;;;;;;;5073881;28;20451;-54
2022/10/24 03:17:12;;;;;;;6.80;6.20;;;;;;;;;;5073371;28;20542;-56
2022/10/24 03:19:38;;;;;;;7.30;6.60;;;;;;;;;;5073762;28;20852;-52
2022/10/24 03:22:06;;;;;;;8.70;7.80;;;;;;;;;;5073619;28;20815;-51
2022/10/24 03:24:32;;;;;;;9.73;7.83;;;;;;;;;;5073699;28;20479;-52
2022/10/24 03:26:59;;;;;;;9.00;7.37;;;;;;;;;;5073588;28;20824;-52
2022/10/24 03:29:28;;;;;;;6.40;5.90;;;;;;;;;;5073626;28;20447;-52
2022/10/24 03:31:55;;;;;;;7.37;6.67;;;;;;;;;;5073829;28;20517;-51
2022/10/24 03:34:22;;;;;;;7.18;6.57;;;;;;;;;;5073463;28;20538;-51
2022/10/24 03:36:48;;;;;;;6.70;6.10;;;;;;;;;;5073310;28;20224;-51
2022/10/24 03:39:15;;;;;;;8.83;6.30;;;;;;;;;;5073514;28;20454;-53
2022/10/24 03:41:42;;;;;;;7.37;6.63;;;;;;;;;;5073421;28;20447;-52
2022/10/24 03:44:09;;;;;;;5.97;5.55;;;;;;;;;;5073120;28;20493;-55
2022/10/24 03:46:38;;;;;;;7.70;7.05;;;;;;;;;;5073246;28;20200;-55
2022/10/24 03:49:04;;;;;;;6.97;6.38;;;;;;;;;;5073076;28;20213;-55
2022/10/24 03:51:31;;;;;;;6.37;5.70;;;;;;;;;;5073045;28;20548;-53
2022/10/24 03:53:58;;;;;;;7.23;5.70;;;;;;;;;;5073300;28;20447;-52
2022/10/24 03:56:25;;;;;;;7.37;6.67;;;;;;;;;;5073132;28;20447;-52
2022/10/24 03:58:52;;;;;;;5.87;5.40;;;;;;;;;;5073161;28;20540;-53
2022/10/24 04:01:20;;;;;;;6.07;5.47;;;;;;;;;;5073053;28;20443;-51
2022/10/24 04:03:48;;;;;;;6.80;6.20;;;;;;;;;;5072890;28;20843;-53
2022/10/24 04:06:15;;;;;;;6.90;5.68;;;;;;;;;;5073191;28;20534;-50
2022/10/24 04:08:42;;;;;;;6.30;5.70;;;;;;;;;;5073035;28;20209;-55
2022/10/24 04:11:09;;;;;;;6.47;5.53;;;;;;;;;;5073011;28;20447;-53
2022/10/24 04:13:36;;;;;;;5.80;5.30;;;;;;;;;;5072983;28;20204;-52
2022/10/24 04:16:03;;;;;;;5.67;5.27;;;;;;;;;;5072861;28;20542;-53
2022/10/24 04:18:30;;;;;;;6.13;5.28;;;;;;;;;;5072862;28;20917;-54
2022/10/24 04:20:58;;;;;;;5.70;5.27;;;;;;;;;;5073056;28;20276;-55
2022/10/24 04:23:26;;;;;;;6.50;5.22;;;;;;;;;;5073188;28;20448;-56
2022/10/24 04:25:53;;;;;;;5.73;5.13;;;;;;;;;;5073002;28;20193;-54
2022/10/24 04:28:20;;;;;;;5.68;5.18;;;;;;;;;;5072003;28;20447;-55
2022/10/24 04:30:46;;;;;;;7.57;5.95;;;;;;;;;;5072897;28;20189;-55
2022/10/24 04:33:13;;;;;;;6.53;5.67;;;;;;;;;;5072736;28;20723;-56
2022/10/24 04:35:40;;;;;;;5.80;5.30;;;;;;;;;;5072481;28;20943;-55
2022/10/24 04:38:09;;;;;;;5.00;4.60;;;;;;;;;;5072621;28;20857;-54
2022/10/24 04:40:36;;;;;;;5.55;5.15;;;;;;;;;;5072669;28;20536;-53
2022/10/24 04:43:02;;;;;;;6.80;5.17;;;;;;;;;;5072596;28;20195;-50
2022/10/24 04:45:29;;;;;;;5.55;4.95;;;;;;;;;;5072375;28;20566;-50
2022/10/24 04:47:56;;;;;;;10.13;5.60;;;;;;;;;;5072512;28;20221;-52
2022/10/24 04:50:23;;;;;;;5.80;5.30;;;;;;;;;;5072587;28;20880;-53
2022/10/24 04:52:50;;;;;;;5.60;5.10;;;;;;;;;;5072589;28;20447;-51
2022/10/24 04:55:18;;;;;;;6.40;5.70;;;;;;;;;;5072490;28;20539;-56
2022/10/24 04:57:45;;;;;;;7.80;5.60;;;;;;;;;;5072349;28;20538;-51
2022/10/24 05:00:13;;;;;;;6.20;5.10;;;;;;;;;;5072316;28;20447;-52
2022/10/24 05:02:40;;;;;;;5.65;5.25;;;;;;;;;;5072556;28;20458;-51
2022/10/24 05:05:07;;;;;;;4.82;4.53;;;;;;;;;;5072221;28;20785;-53
2022/10/24 05:07:34;;;;;;;5.87;5.30;;;;;;;;;;5072313;28;20221;-55
2022/10/24 05:10:01;;;;;;;5.33;4.93;;;;;;;;;;5072298;28;20545;-55
2022/10/24 05:12:29;;;;;;;5.90;4.10;;;;;;;;;;5072735;28;20868;-53
2022/10/24 05:14:56;;;;;;;5.47;4.97;;;;;;;;;;5072121;28;20486;-52
2022/10/24 05:17:23;;;;;;;5.17;4.67;;;;;;;;;;5072083;28;20954;-55
2022/10/24 05:19:50;;;;;;;7.07;5.17;;;;;;;;;;5072293;28;20453;-52
2022/10/24 05:22:17;;;;;;;4.80;4.50;;;;;;;;;;5072263;28;20454;-55
2022/10/24 05:24:44;;;;;;;6.83;5.43;;;;;;;;;;5072068;28;20485;-54
2022/10/24 05:27:11;;;;;;;6.47;4.90;;;;;;;;;;5072031;28;20536;-51
2022/10/24 05:29:39;;;;;;;5.47;4.97;;;;;;;;;;5072217;28;20453;-55
2022/10/24 05:32:06;;;;;;;5.60;4.88;;;;;;;;;;5071869;28;21017;-56
2022/10/24 05:34:33;;;;;;;4.87;4.37;;;;;;;;;;5072044;28;20692;-54
2022/10/24 05:37:00;;;;;;;5.67;5.17;;;;;;;;;;5072063;28;20451;-54
2022/10/24 05:39:26;;;;;;;5.37;4.30;;;;;;;;;;5073596;28;20447;-55
2022/10/24 05:41:53;;;;;;;7.30;4.67;;;;;;;;;;5075417;28;20451;-52
2022/10/24 05:44:20;;;;;;;7.83;5.17;;;;;;;;;;5075457;28;20557;-55
2022/10/24 05:46:49;;;;;;;5.20;4.70;;;;;;;;;;5075146;28;20538;-54
2022/10/24 05:49:16;;;;;;;5.38;4.78;;;;;;;;;;5075455;28;20458;-54
2022/10/24 05:51:42;;;;;;;6.20;4.47;;;;;;;;;;5075440;28;20193;-53
2022/10/24 05:54:09;;;;;;;5.07;4.70;;;;;;;;;;5075139;28;21030;-54
2022/10/24 05:56:36;;;;;;;11.80;8.70;;;;;;;;;;5075061;28;20923;-52
2022/10/24 05:59:04;;;;;;;7.63;6.20;;;;;;;;;;5075380;28;20538;-54
2022/10/24 06:01:31;;;;;;;11.73;6.70;;;;;;;;;;5075296;28;20481;-53
2022/10/24 06:03:59;;;;;;;6.53;5.88;;;;;;;;;;5075117;28;20802;-54
2022/10/24 06:06:26;;;;;;;7.73;5.40;;;;;;;;;;5074892;28;20185;-55
2022/10/24 06:08:53;;;;;;;8.57;5.53;;;;;;;;;;5075026;28;20458;-53
2022/10/24 06:11:21;;;;;;;5.53;4.90;;;;;;;;;;5075263;28;20807;-52
2022/10/24 06:13:47;;;;;;;5.00;4.50;;;;;;;;;;5075119;28;20454;-52
2022/10/24 06:16:14;;;;;;;6.07;4.43;;;;;;;;;;5074965;28;20537;-51
2022/10/24 06:18:41;;;;;;;7.10;6.40;;;;;;;;;;5074886;28;20454;-54
2022/10/24 06:21:10;;;;;;;11.17;5.87;;;;;;;;;;5074789;28;20448;-54
2022/10/24 06:23:37;;;;;;;8.93;6.03;;;;;;;;;;5074706;28;20535;-54
2022/10/24 06:26:08;;;;;;;6.17;5.10;;;;;;;;;;5074754;28;20526;-55
2022/10/24 06:28:35;;;;;;;6.00;5.30;;;;;;;;;;5074699;28;20492;-55
2022/10/24 06:31:03;;;;;;;6.07;4.80;;;;;;;;;;5074571;28;20881;-53
2022/10/24 06:33:29;;;;;;;5.50;4.97;;;;;;;;;;5074634;28;20189;-55
2022/10/24 06:35:59;;;;;;;8.50;4.85;;;;;;;;;;5074450;28;20884;-56
2022/10/24 06:38:28;;;;;;;7.10;4.90;;;;;;;;;;5074556;28;20213;-53
2022/10/24 06:40:55;;;;;;;6.77;5.13;;;;;;;;;;5074550;28;20451;-52
2022/10/24 06:43:22;;;;;;;5.43;4.73;;;;;;;;;;5074268;28;21028;-52
2022/10/24 06:45:49;;;;;;;10.07;6.00;;;;;;;;;;5074297;28;20570;-55
2022/10/24 06:48:16;;;;;;;7.30;5.40;;;;;;;;;;5073951;28;20501;-55
2022/10/24 06:50:43;;;;;;;5.93;5.40;;;;;;;;;;5073828;28;20875;-52
2022/10/24 06:53:10;;;;;;;6.57;4.33;;;;;;;;;;5074298;28;20501;-53
2022/10/24 06:55:40;;;;;;;5.07;4.63;;;;;;;;;;5074207;28;20531;-53
2022/10/24 06:58:07;;;;;;;5.60;4.80;;;;;;;;;;5074062;28;20796;-52
2022/10/24 07:00:34;;;;;;;7.67;4.40;;;;;;;;;;5073914;28;20276;-52
2022/10/24 07:03:01;;;;;;;6.07;5.57;;;;;;;;;;5073746;28;20459;-53
2022/10/24 07:05:28;;;;;;;5.30;4.90;;;;;;;;;;5073506;28;20479;-55
2022/10/24 07:07:55;;;;;;;5.70;4.83;;;;;;;;;;5073964;28;20220;-54
2022/10/24 07:10:22;;;;;;;4.80;4.33;;;;;;;;;;5073914;28;20542;-53
2022/10/24 07:12:50;;;;;;;7.17;5.60;;;;;;;;;;5073737;28;20458;-55
2022/10/24 07:15:17;;;;;;;4.63;4.23;;;;;;;;;;5073488;28;20457;-55
2022/10/24 07:17:45;;;;;;;4.60;4.20;;;;;;;;;;5073322;28;20555;-54
2022/10/24 07:20:12;;;;;;;6.87;4.90;;;;;;;;;;5073727;28;20281;-55
2022/10/24 07:22:39;;;;;;;5.73;4.53;;;;;;;;;;5073564;28;20452;-51
2022/10/24 07:25:07;;;;;;;5.70;4.60;;;;;;;;;;5073396;28;20479;-54
2022/10/24 07:27:34;;;;;;;9.38;4.25;;;;;;;;;;5073082;28;20530;-59
2022/10/24 07:30:02;;;;;;;9.70;4.50;;;;;;;;;;5073275;28;20482;-60
2022/10/24 07:32:29;;;;;;;5.53;5.00;;;;;;;;;;5073461;28;20911;-59
2022/10/24 07:34:56;;;;;;;11.33;4.97;;;;;;;;;;5073405;28;20447;-59
2022/10/24 07:37:23;;;;;;;6.73;4.30;;;;;;;;;;5073321;28;20458;-59
2022/10/24 07:39:50;;;;;;;5.22;4.57;;;;;;;;;;5073136;28;20554;-55
2022/10/24 07:42:17;;;;;;;4.50;4.20;;;;;;;;;;5073141;28;20548;-59
2022/10/24 07:44:44;;;;;;;4.40;3.78;;;;;;;;;;5072970;28;20471;-59
2022/10/24 07:47:13;;;;;;;3.72;3.40;;;;;;;;;;5075467;28;20212;-58
2022/10/24 07:49:40;;;;;;;4.90;4.07;;;;;;;;;;5073123;28;20671;-62
2022/10/24 07:52:06;;;;;;;4.50;4.10;;;;;;;;;;5073129;28;20448;-61
2022/10/24 07:54:33;;;;;;;7.07;4.30;;;;;;;;;;5072774;28;20538;-58
2022/10/24 07:57:00;;;;;;;8.70;5.10;;;;;;;;;;5074977;28;20442;-59
2022/10/24 07:59:29;;;;;;;7.33;4.60;;;;;;;;;;5075444;28;21003;-60
2022/10/24 08:01:55;;;;;;;7.30;4.23;;;;;;;;;;5073138;28;20447;-54
2022/10/24 08:04:24;;;;;;;5.60;5.10;;;;;;;;;;5073014;28;20535;-61
2022/10/24 08:06:51;;;;;;;6.83;4.60;;;;;;;;;;5072960;28;21010;-59
2022/10/24 08:09:19;;;;;;;8.60;4.77;;;;;;;;;;5072901;28;20546;-56
2022/10/24 08:11:46;;;;;;;4.23;3.87;;;;;;;;;;5079081;28;20927;-60
2022/10/24 08:14:13;;;;;;;4.77;3.90;;;;;;;;;;5090209;28;20442;-59
2022/10/24 08:16:41;;;;;;;5.27;3.73;;;;;;;;;;5092948;28;20458;-58
2022/10/24 08:19:08;;;;;;;9.63;4.30;;;;;;;;;;5092840;28;20454;-60
2022/10/24 08:21:37;;;;;;;5.27;3.90;;;;;;;;;;5092902;28;20533;-60
2022/10/24 08:24:04;;;;;;;3.97;3.47;;;;;;;;;;5092903;28;20884;-60
2022/10/24 08:26:30;;;;;;;7.70;4.00;;;;;;;;;;5092631;28;20314;-60
2022/10/24 08:28:57;;;;;;;6.80;3.17;;;;;;;;;;5092938;28;20545;-60
2022/10/24 08:31:25;;;;;;;6.80;4.10;;;;;;;;;;5092457;28;20533;-59
2022/10/24 08:33:53;;;;;;;3.53;3.23;;;;;;;;;;5092775;28;20470;-61
2022/10/24 08:36:22;;;;;;;7.93;4.23;;;;;;;;;;5092203;28;20454;-60
2022/10/24 08:38:50;;;;;;;6.40;3.20;;;;;;;;;;5086998;28;20542;-55
2022/10/24 08:41:21;;;;;;;5.67;3.07;;;;;;;;;;5093079;28;21072;-60
2022/10/24 08:43:48;;;;;;;5.90;3.20;;;;;;;;;;5092749;28;20453;-59
2022/10/24 08:46:24;;;;;;;7.75;3.42;;;;;;;;;;5092535;28;20569;-58
2022/10/24 08:48:54;;;;;;;7.55;3.85;;;;;;;;;;5092341;28;20220;-60
2022/10/24 08:51:23;;;;;;;4.70;2.97;;;;;;;;;;5092486;28;20191;-60
2022/10/24 08:53:52;;;;;;;6.03;2.87;;;;;;;;;;5092578;28;20886;-57
2022/10/24 08:56:30;;;;;;;4.13;3.10;;;;;;;;;;5092589;28;20456;-59
2022/10/24 08:58:57;;;;;;;5.70;3.00;;;;;;;;;;5092254;28;20199;-58
2022/10/24 09:01:30;;;;;;;6.17;2.93;;;;;;;;;;5092351;28;20455;-61
2022/10/24 09:04:00;;;;;;;6.40;2.40;;;;;;;;;;5092376;28;20537;-58
2022/10/24 09:06:27;;;;;;;3.10;2.78;;;;;;;;;;5092545;28;20482;-58
2022/10/24 09:08:58;;;;;;;4.67;2.70;;;;;;;;;;5092534;28;20197;-59
2022/10/24 09:11:27;;;;;;;6.03;2.10;;;;;;;;;;5092187;28;20454;-59
2022/10/24 09:13:54;;;;;;;6.23;2.50;;;;;;;;;;5093316;28;20537;-57
2022/10/24 09:16:23;;;;;;;6.07;3.15;;;;;;;;;;5096097;28;20521;-59
2022/10/24 09:18:51;;;;;;;4.83;2.50;;;;;;;;;;5092950;28;20178;-59
2022/10/24 09:21:19;;;;;;;4.40;2.63;;;;;;;;;;5080556;28;20459;-57
2022/10/24 09:23:46;;;;;;;8.13;3.50;;;;;;;;;;5075645;28;20454;-59
2022/10/24 09:26:16;;;;;;;5.73;2.80;;;;;;;;;;5075231;28;20574;-58
2022/10/24 09:28:43;;;;;;;4.70;2.27;;;;;;;;;;5075670;28;20447;-56
2022/10/24 09:31:15;;;;;;;4.77;3.17;;;;;;;;;;5075605;28;20982;-60
2022/10/24 09:33:42;;;;;;;3.23;2.57;;;;;;;;;;5075837;28;20455;-60
2022/10/24 09:36:11;;;;;;;6.53;2.70;;;;;;;;;;5075251;28;20550;-60
2022/10/24 09:38:39;;;;;;;9.43;2.70;;;;;;;;;;5075542;28;20193;-59
2022/10/24 09:41:07;;;;;;;4.60;2.50;;;;;;;;;;5086210;28;20452;-60
2022/10/24 09:43:39;;;;;;;8.43;2.77;;;;;;;;;;5089544;28;20526;-58
2022/10/24 09:46:07;;;;;;;5.97;2.60;;;;;;;;;;5095754;28;21069;-59
2022/10/24 09:48:39;;;;;;;6.30;3.13;;;;;;;;;;5095458;28;20505;-59
2022/10/24 09:51:07;;;;;;;5.47;2.60;;;;;;;;;;5095653;28;20541;-59
2022/10/24 09:53:35;;;;;;;9.27;3.00;;;;;;;;;;5095471;28;20442;-60
2022/10/24 09:56:08;;;;;;;5.87;2.90;;;;;;;;;;5095242;28;20567;-60
2022/10/24 09:58:36;;;;;;;3.77;2.87;;;;;;;;;;5095602;28;20528;-60
2022/10/24 10:01:05;;;;;;;3.23;2.13;;;;;;;;;;5095463;28;20945;-62
2022/10/24 10:03:32;;;;;;;6.50;2.43;;;;;;;;;;5095362;28;20446;-63
2022/10/24 10:06:03;;;;;;;7.40;2.90;;;;;;;;;;5095301;28;20915;-60
2022/10/24 10:08:30;;;;;;;5.77;2.53;;;;;;;;;;5095138;28;20483;-59
2022/10/24 10:10:58;;;;;;;8.27;2.93;;;;;;;;;;5095449;28;20453;-60
2022/10/24 10:13:26;;;;;;;3.67;2.10;;;;;;;;;;5095208;28;20447;-56
2022/10/24 10:15:55;;;;;;;8.63;3.30;;;;;;;;;;5095120;28;20438;-60
2022/10/24 10:18:25;;;;;;;5.97;2.37;;;;;;;;;;5095059;28;20449;-60
2022/10/24 10:20:59;;;;;;;3.13;2.23;;;;;;;;;;5095024;28;20453;-59
2022/10/24 10:23:28;;;;;;;10.77;2.67;;;;;;;;;;5095066;28;20537;-56
2022/10/24 10:26:02;;;;;;;5.23;2.30;;;;;;;;;;5093190;28;20213;-60
2022/10/24 10:28:29;;;;;;;5.90;3.40;;;;;;;;;;5094822;28;20533;-59
2022/10/24 10:30:58;;;;;;;5.03;2.70;;;;;;;;;;5094766;28;20483;-59
2022/10/24 10:33:28;;;;;;;8.20;2.33;;;;;;;;;;5094394;28;20473;-59
2022/10/24 10:36:00;;;;;;;5.53;1.70;;;;;;;;;;5085567;28;20455;-59
2022/10/24 10:38:37;;;;;;;6.17;1.80;;;;;;;;;;5077023;28;20486;-60
2022/10/24 10:41:08;;;;;;;6.40;2.60;;;;;;;;;;5074127;28;20562;-59
2022/10/24 10:43:37;;;;;;;3.60;2.10;;;;;;;;;;5088010;28;20447;-59
2022/10/24 10:46:18;;;;;;;11.80;2.47;;;;;;;;;;5094341;28;20493;-59
2022/10/24 10:48:54;;;;;;;5.10;2.17;;;;;;;;;;5094398;28;20562;-59
2022/10/24 10:51:26;;;;;;;4.33;2.10;;;;;;;;;;5094407;28;20541;-59
2022/10/24 10:53:57;;;;;;;5.27;2.43;;;;;;;;;;5094415;28;20457;-58
2022/10/24 10:56:28;;;;;;;3.70;1.80;;;;;;;;;;5094187;28;20455;-59
2022/10/24 10:59:04;;;;;;;6.03;2.40;;;;;;;;;;5093816;28;20545;-59
2022/10/24 11:01:37;;;;;;;7.25;2.17;;;;;;;;;;5094229;28;20528;-59
2022/10/24 11:04:07;;;;;;;3.10;2.10;;;;;;;;;;5094122;28;20653;-59
2022/10/24 11:06:37;;;;;;;9.20;2.87;;;;;;;;;;5093821;28;20925;-60
2022/10/24 11:09:09;;;;;;;8.60;2.47;;;;;;;;;;5093880;28;20941;-60
2022/10/24 11:11:37;;;;;;;10.45;2.40;;;;;;;;;;5094152;28;20450;-60
2022/10/24 11:14:14;;;;;;;6.32;2.95;;;;;;;;;;5093908;28;20189;-59
2022/10/24 11:16:43;;;;;;;5.10;2.27;;;;;;;;;;5093983;28;20279;-60
2022/10/24 11:19:12;;;;;;;6.00;2.93;;;;;;;;;;5090580;28;20958;-60
2022/10/24 11:21:39;;;;;;;2.97;2.10;;;;;;;;;;5073146;28;20454;-60
2022/10/24 11:24:11;;;;;;;2.87;2.03;;;;;;;;;;5073689;28;20458;-60
2022/10/24 11:26:40;;;;;;;8.77;3.37;;;;;;;;;;5073515;28;20834;-60
2022/10/24 11:29:11;;;;;;;6.07;2.63;;;;;;;;;;5073353;28;20653;-59
2022/10/24 11:31:40;;;;;;;4.07;2.30;;;;;;;;;;5073391;28;20457;-61
2022/10/24 11:34:13;;;;;;;4.07;2.57;;;;;;;;;;5073112;28;20505;-59
2022/10/24 11:36:43;;;;;;;5.47;2.23;;;;;;;;;;5073097;28;20453;-60
2022/10/24 11:39:13;;;;;;;8.20;2.63;;;;;;;;;;5073457;28;20444;-59
2022/10/24 11:41:48;;;;;;;4.50;2.10;;;;;;;;;;5073236;28;20934;-59
2022/10/24 11:44:21;;;;;;;6.50;2.67;;;;;;;;;;5073137;28;20539;-61
2022/10/24 11:46:52;;;;;;;9.60;3.00;;;;;;;;;;5073081;28;20483;-62
2022/10/24 11:49:23;;;;;;;7.67;2.43;;;;;;;;;;5073209;28;20834;-59
2022/10/24 11:51:52;;;;;;;3.47;2.10;;;;;;;;;;5072864;28;20453;-58
2022/10/24 11:54:22;;;;;;;4.07;1.83;;;;;;;;;;5073029;28;20483;-59
2022/10/24 11:56:51;;;;;;;5.63;2.25;;;;;;;;;;5073005;28;20475;-59
2022/10/24 11:59:23;;;;;;;5.17;2.03;;;;;;;;;;5072319;28;20236;-58
2022/10/24 12:02:03;;;;;;;4.53;2.50;;;;;;;;;;5073041;28;20539;-55
2022/10/24 12:05:02;;;;;;;3.63;2.80;;;;;;;;;;5082144;28;20455;-58
2022/10/24 12:07:45;;;;;;;4.00;2.60;;;;;;;;;;5075632;28;20562;-55
2022/10/24 12:10:25;;;;;;;3.80;2.00;;;;;;;;;;5072808;28;20537;-58
2022/10/24 12:13:03;;;;;;;4.90;1.80;;;;;;;;;;5072698;28;20439;-57
2022/10/24 12:15:39;;;;;;;2.70;2.00;;;;;;;;;;5072628;28;20465;-53
2022/10/24 12:18:09;;;;;;;2.80;1.87;;;;;;;;;;5072835;28;20497;-56
2022/10/24 12:20:38;;;;;;;4.00;1.93;;;;;;;;;;5083933;28;20900;-56
2022/10/24 12:23:05;;;;;;;10.80;2.13;;;;;;;;;;5092157;28;20446;-56
2022/10/24 12:25:34;;;;;;;3.53;2.13;;;;;;;;;;5091284;28;20837;-58
2022/10/24 12:28:02;;;;;;;6.50;2.30;;;;;;;;;;5092651;28;20552;-59
2022/10/24 12:30:31;;;;;;;3.50;2.00;;;;;;;;;;5092646;28;20546;-56
2022/10/24 12:33:00;;;;;;;10.73;2.27;;;;;;;;;;5092857;28;20541;-71
2022/10/24 12:35:36;;;;;;;5.10;1.80;;;;;;;;;;5078536;28;20451;-56
2022/10/24 12:38:15;;;;;;;4.10;1.73;;;;;;;;;;5072146;28;20458;-54
2022/10/24 12:40:50;;;;;;;4.33;3.00;;;;;;;;;;5072479;28;20531;-54
2022/10/24 12:43:27;;;;;;;9.93;2.37;;;;;;;;;;5072297;28;20443;-54
2022/10/24 12:45:54;;;;;;;5.57;2.23;;;;;;;;;;5072147;28;20458;-54
2022/10/24 12:48:35;;;;;;;7.10;2.03;;;;;;;;;;5072412;28;20479;-53
2022/10/24 12:51:26;;;;;;;4.87;1.93;;;;;;;;;;5076350;28;20454;-55
2022/10/24 12:54:15;;;;;;;4.00;2.00;;;;;;;;;;5076571;28;20493;-53
2022/10/24 12:56:57;;;;;;;6.00;1.90;;;;;;;;;;5076788;28;20466;-54
2022/10/24 12:59:26;;;;;;;3.20;2.20;;;;;;;;;;5075511;28;20476;-50
2022/10/24 13:02:20;;;;;;;6.57;2.60;;;;;;;;;;5076434;28;20444;-53
2022/10/24 13:04:52;;;;;;;5.60;2.30;;;;;;;;;;5076394;28;20545;-54
2022/10/24 13:07:43;;;;;;;7.20;2.17;;;;;;;;;;5076093;28;20482;-52
2022/10/24 13:10:18;;;;;;;4.33;2.03;;;;;;;;;;5076332;28;20443;-55
2022/10/24 13:12:56;;;;;;;6.10;2.40;;;;;;;;;;5076307;28;20802;-52
2022/10/24 13:15:29;;;;;;;6.43;2.60;;;;;;;;;;5076106;28;20534;-55
2022/10/24 13:18:02;;;;;;;6.97;2.50;;;;;;;;;;5076005;28;20459;-55
2022/10/24 13:20:30;;;;;;;6.83;2.10;;;;;;;;;;5076188;28;20447;-50
2022/10/24 13:23:01;;;;;;;10.13;2.33;;;;;;;;;;5076016;28;20439;-50
2022/10/24 13:25:33;;;;;;;7.43;2.27;;;;;;;;;;5076013;28;20624;-52
2022/10/24 13:28:29;;;;;;;3.17;1.80;;;;;;;;;;5075756;28;20483;-52
2022/10/24 13:31:11;;;;;;;6.63;2.50;;;;;;;;;;5040598;28;20455;-52
2022/10/24 13:33:42;;;;;;;5.77;3.23;;;;;;;;;;5075020;28;20463;-49
2022/10/24 13:36:16;;;;;;;4.13;2.40;;;;;;;;;;5075632;28;20447;-55
2022/10/24 13:38:46;;;;;;;4.60;2.33;;;;;;;;;;5075659;28;20532;-56
2022/10/24 13:41:18;;;;;;;4.40;2.67;;;;;;;;;;5075527;28;20454;-50
2022/10/24 13:43:47;;;;;;;4.60;2.53;;;;;;;;;;5075857;28;20542;-52
2022/10/24 13:46:22;;;;;;;7.17;2.33;;;;;;;;;;5075429;28;20448;-52
2022/10/24 13:48:49;;;;;;;4.63;2.17;;;;;;;;;;5075041;28;21059;-50
2022/10/24 13:51:18;;;;;;;9.77;2.53;;;;;;;;;;5075214;28;20447;-49
2022/10/24 13:53:48;;;;;;;4.13;2.17;;;;;;;;;;5075139;28;20454;-49
2022/10/24 13:56:17;;;;;;;4.40;2.07;;;;;;;;;;5075463;28;20530;-51
2022/10/24 13:58:45;;;;;;;3.60;2.00;;;;;;;;;;5075397;28;20454;-50
2022/10/24 14:01:16;;;;;;;3.80;1.80;;;;;;;;;;5074983;28;20447;-50
2022/10/24 14:03:44;;;;;;;6.97;2.43;;;;;;;;;;5075215;28;20451;-50
2022/10/24 14:06:11;;;;;;;5.20;2.23;;;;;;;;;;5074991;28;20947;-49
2022/10/24 14:08:42;;;;;;;2.77;1.83;;;;;;;;;;5075183;28;21008;-52
2022/10/24 14:11:13;;;;;;;5.67;2.63;;;;;;;;;;5075017;28;20444;-52
2022/10/24 14:13:43;;;;;;;6.07;2.60;;;;;;;;;;5074959;28;20450;-52
2022/10/24 14:16:10;;;;;;;3.50;2.00;;;;;;;;;;5074942;28;20458;-55
2022/10/24 14:18:40;;;;;;;2.10;1.90;;;;;;;;;;5074718;28;20201;-51
2022/10/24 14:21:07;;;;;;;4.80;1.83;;;;;;;;;;5074997;28;20447;-49
2022/10/24 14:23:35;;;;;;;3.38;2.45;;;;;;;;;;5074887;28;20795;-52
2022/10/24 14:26:03;;;;;;;2.60;2.00;;;;;;;;;;5074684;28;20189;-54
2022/10/24 14:28:31;;;;;;;7.93;2.53;;;;;;;;;;5074663;28;20525;-51
2022/10/24 14:31:00;;;;;;;9.53;2.20;;;;;;;;;;5074551;28;20542;-55
2022/10/24 14:33:28;;;;;;;7.27;2.33;;;;;;;;;;5074711;28;20542;-55
2022/10/24 14:35:55;;;;;;;3.77;2.27;;;;;;;;;;5074521;28;20447;-52
2022/10/24 14:38:23;;;;;;;5.77;2.63;;;;;;;;;;5074576;28;20540;-54
2022/10/24 14:40:50;;;;;;;6.77;2.60;;;;;;;;;;5074394;28;20504;-50
2022/10/24 14:43:19;;;;;;;5.10;2.70;;;;;;;;;;5074345;28;20455;-55
2022/10/24 14:46:01;;;;;;;5.83;2.60;;;;;;;;;;5074517;28;20483;-54
2022/10/24 14:48:30;;;;;;;6.93;2.43;;;;;;;;;;5074082;28;20487;-53
2022/10/24 14:51:02;;;;;;;5.20;2.27;;;;;;;;;;5074218;28;20719;-53
2022/10/24 14:53:29;;;;;;;4.27;2.00;;;;;;;;;;5073996;28;20989;-49
2022/10/24 14:55:58;;;;;;;4.43;2.80;;;;;;;;;;5073897;28;20443;-50